<?xml version="1.0" encoding="UTF-8" standalone="no" ?>
<gpx xmlns="http://www.topografix.com/GPX/1/1" xmlns:xsi="http://www.w3.org/2001/XMLSchema-instance" xsi:schemaLocation="http://www.topografix.com/GPX/1/1 http://www.topografix.com/GPX/1/1/gpx.xsd" version="1.1" creator="VisuGPX - https://www.visugpx.com">
  <metadata>
    <name>Balade</name>
    <desc><![CDATA[essai de transfer de tracé en itinéraire]]></desc>
  </metadata>
  <trk>
    <name><![CDATA[Tracé actuel: 29 MARS 2013 06:48]]></name>
    <trkseg>
      <trkpt lat="49.07537" lon="7.13549">
        <ele>227.01</ele>
        <time>2013-03-29T04:48:28Z</time>
      </trkpt>
      <trkpt lat="49.07564" lon="7.13561">
        <ele>226.05</ele>
        <time>2013-03-29T04:48:52Z</time>
      </trkpt>
      <trkpt lat="49.07578" lon="7.13569">
        <ele>226.05</ele>
        <time>2013-03-29T04:49:13Z</time>
      </trkpt>
      <trkpt lat="49.07593" lon="7.13579">
        <ele>222.2</ele>
        <time>2013-03-29T04:49:28Z</time>
      </trkpt>
      <trkpt lat="49.07601" lon="7.13585">
        <ele>218.36</ele>
        <time>2013-03-29T04:49:36Z</time>
      </trkpt>
      <trkpt lat="49.07602" lon="7.13586">
        <ele>218.36</ele>
        <time>2013-03-29T04:49:37Z</time>
      </trkpt>
      <trkpt lat="49.07612" lon="7.13591">
        <ele>215.47</ele>
        <time>2013-03-29T04:49:46Z</time>
      </trkpt>
      <trkpt lat="49.07628" lon="7.13599">
        <ele>212.11</ele>
        <time>2013-03-29T04:50:01Z</time>
      </trkpt>
      <trkpt lat="49.07666" lon="7.13617">
        <ele>209.7</ele>
        <time>2013-03-29T04:50:31Z</time>
      </trkpt>
      <trkpt lat="49.07701" lon="7.13627">
        <ele>208.26</ele>
        <time>2013-03-29T04:50:59Z</time>
      </trkpt>
      <trkpt lat="49.077" lon="7.13625">
        <ele>208.26</ele>
        <time>2013-03-29T04:51:14Z</time>
      </trkpt>
      <trkpt lat="49.07706" lon="7.13624">
        <ele>208.26</ele>
        <time>2013-03-29T04:51:19Z</time>
      </trkpt>
      <trkpt lat="49.07745" lon="7.13615">
        <ele>208.26</ele>
        <time>2013-03-29T04:51:48Z</time>
      </trkpt>
      <trkpt lat="49.07779" lon="7.13595">
        <ele>208.74</ele>
        <time>2013-03-29T04:52:13Z</time>
      </trkpt>
      <trkpt lat="49.07816" lon="7.13576">
        <ele>208.26</ele>
        <time>2013-03-29T04:52:44Z</time>
      </trkpt>
      <trkpt lat="49.07847" lon="7.13564">
        <ele>208.26</ele>
        <time>2013-03-29T04:53:13Z</time>
      </trkpt>
      <trkpt lat="49.07869" lon="7.13559">
        <ele>207.78</ele>
        <time>2013-03-29T04:53:39Z</time>
      </trkpt>
      <trkpt lat="49.07899" lon="7.13552">
        <ele>207.78</ele>
        <time>2013-03-29T04:54:05Z</time>
      </trkpt>
      <trkpt lat="49.07917" lon="7.13544">
        <ele>207.3</ele>
        <time>2013-03-29T04:54:29Z</time>
      </trkpt>
      <trkpt lat="49.07922" lon="7.13535">
        <ele>207.3</ele>
        <time>2013-03-29T04:54:36Z</time>
      </trkpt>
      <trkpt lat="49.07923" lon="7.13511">
        <ele>207.3</ele>
        <time>2013-03-29T04:54:49Z</time>
      </trkpt>
      <trkpt lat="49.07926" lon="7.13472">
        <ele>208.74</ele>
        <time>2013-03-29T04:55:11Z</time>
      </trkpt>
      <trkpt lat="49.0793" lon="7.13455">
        <ele>209.7</ele>
        <time>2013-03-29T04:55:21Z</time>
      </trkpt>
      <trkpt lat="49.07951" lon="7.13436">
        <ele>211.15</ele>
        <time>2013-03-29T04:55:44Z</time>
      </trkpt>
      <trkpt lat="49.07972" lon="7.13401">
        <ele>214.03</ele>
        <time>2013-03-29T04:56:11Z</time>
      </trkpt>
      <trkpt lat="49.0798" lon="7.13383">
        <ele>215.47</ele>
        <time>2013-03-29T04:56:32Z</time>
      </trkpt>
      <trkpt lat="49.07979" lon="7.13368">
        <ele>215.95</ele>
        <time>2013-03-29T04:56:57Z</time>
      </trkpt>
      <trkpt lat="49.07997" lon="7.13344">
        <ele>218.84</ele>
        <time>2013-03-29T04:57:17Z</time>
      </trkpt>
      <trkpt lat="49.08029" lon="7.13323">
        <ele>218.84</ele>
        <time>2013-03-29T04:57:44Z</time>
      </trkpt>
      <trkpt lat="49.08065" lon="7.1331">
        <ele>219.32</ele>
        <time>2013-03-29T04:58:11Z</time>
      </trkpt>
      <trkpt lat="49.081" lon="7.1329">
        <ele>219.8</ele>
        <time>2013-03-29T04:58:38Z</time>
      </trkpt>
      <trkpt lat="49.08126" lon="7.13275">
        <ele>220.28</ele>
        <time>2013-03-29T04:59:05Z</time>
      </trkpt>
      <trkpt lat="49.0815" lon="7.1326">
        <ele>219.32</ele>
        <time>2013-03-29T04:59:30Z</time>
      </trkpt>
      <trkpt lat="49.08184" lon="7.13248">
        <ele>218.84</ele>
        <time>2013-03-29T04:59:56Z</time>
      </trkpt>
      <trkpt lat="49.08224" lon="7.13229">
        <ele>218.36</ele>
        <time>2013-03-29T05:00:24Z</time>
      </trkpt>
      <trkpt lat="49.08271" lon="7.13209">
        <ele>219.32</ele>
        <time>2013-03-29T05:00:56Z</time>
      </trkpt>
      <trkpt lat="49.08315" lon="7.13183">
        <ele>219.32</ele>
        <time>2013-03-29T05:01:28Z</time>
      </trkpt>
      <trkpt lat="49.08352" lon="7.13169">
        <ele>219.32</ele>
        <time>2013-03-29T05:01:56Z</time>
      </trkpt>
      <trkpt lat="49.08392" lon="7.13142">
        <ele>219.8</ele>
        <time>2013-03-29T05:02:25Z</time>
      </trkpt>
      <trkpt lat="49.08428" lon="7.13115">
        <ele>220.76</ele>
        <time>2013-03-29T05:02:54Z</time>
      </trkpt>
      <trkpt lat="49.08443" lon="7.13097">
        <ele>221.72</ele>
        <time>2013-03-29T05:03:12Z</time>
      </trkpt>
      <trkpt lat="49.08467" lon="7.1307">
        <ele>224.12</ele>
        <time>2013-03-29T05:03:35Z</time>
      </trkpt>
      <trkpt lat="49.08493" lon="7.13034">
        <ele>226.05</ele>
        <time>2013-03-29T05:04:03Z</time>
      </trkpt>
      <trkpt lat="49.08518" lon="7.12993">
        <ele>227.49</ele>
        <time>2013-03-29T05:04:31Z</time>
      </trkpt>
      <trkpt lat="49.08519" lon="7.12975">
        <ele>227.49</ele>
        <time>2013-03-29T05:04:40Z</time>
      </trkpt>
      <trkpt lat="49.085" lon="7.12962">
        <ele>230.37</ele>
        <time>2013-03-29T05:05:01Z</time>
      </trkpt>
      <trkpt lat="49.08481" lon="7.12948">
        <ele>231.33</ele>
        <time>2013-03-29T05:05:20Z</time>
      </trkpt>
      <trkpt lat="49.08447" lon="7.12927">
        <ele>233.74</ele>
        <time>2013-03-29T05:05:48Z</time>
      </trkpt>
      <trkpt lat="49.08412" lon="7.12904">
        <ele>235.66</ele>
        <time>2013-03-29T05:06:17Z</time>
      </trkpt>
      <trkpt lat="49.08381" lon="7.12889">
        <ele>237.1</ele>
        <time>2013-03-29T05:06:43Z</time>
      </trkpt>
      <trkpt lat="49.08355" lon="7.12873">
        <ele>238.06</ele>
        <time>2013-03-29T05:07:08Z</time>
      </trkpt>
      <trkpt lat="49.08355" lon="7.12871">
        <ele>238.06</ele>
        <time>2013-03-29T05:07:25Z</time>
      </trkpt>
      <trkpt lat="49.08345" lon="7.12864">
        <ele>238.54</ele>
        <time>2013-03-29T05:07:33Z</time>
      </trkpt>
      <trkpt lat="49.08306" lon="7.12845">
        <ele>239.51</ele>
        <time>2013-03-29T05:08:03Z</time>
      </trkpt>
      <trkpt lat="49.08262" lon="7.12827">
        <ele>241.43</ele>
        <time>2013-03-29T05:08:35Z</time>
      </trkpt>
      <trkpt lat="49.08225" lon="7.12812">
        <ele>242.87</ele>
        <time>2013-03-29T05:09:03Z</time>
      </trkpt>
      <trkpt lat="49.08213" lon="7.12808">
        <ele>243.35</ele>
        <time>2013-03-29T05:09:12Z</time>
      </trkpt>
      <trkpt lat="49.08201" lon="7.1284">
        <ele>243.35</ele>
        <time>2013-03-29T05:09:37Z</time>
      </trkpt>
      <trkpt lat="49.08201" lon="7.12845">
        <ele>242.87</ele>
        <time>2013-03-29T05:09:42Z</time>
      </trkpt>
      <trkpt lat="49.08183" lon="7.12897">
        <ele>240.95</ele>
        <time>2013-03-29T05:10:10Z</time>
      </trkpt>
      <trkpt lat="49.08163" lon="7.12962">
        <ele>239.51</ele>
        <time>2013-03-29T05:10:40Z</time>
      </trkpt>
      <trkpt lat="49.08137" lon="7.1301">
        <ele>239.02</ele>
        <time>2013-03-29T05:11:06Z</time>
      </trkpt>
      <trkpt lat="49.08129" lon="7.13014">
        <ele>239.02</ele>
        <time>2013-03-29T05:11:12Z</time>
      </trkpt>
      <trkpt lat="49.08103" lon="7.13059">
        <ele>239.51</ele>
        <time>2013-03-29T05:11:41Z</time>
      </trkpt>
      <trkpt lat="49.08086" lon="7.13077">
        <ele>239.51</ele>
        <time>2013-03-29T05:11:55Z</time>
      </trkpt>
      <trkpt lat="49.08076" lon="7.13068">
        <ele>240.47</ele>
        <time>2013-03-29T05:12:04Z</time>
      </trkpt>
      <trkpt lat="49.08038" lon="7.13086">
        <ele>242.39</ele>
        <time>2013-03-29T05:12:33Z</time>
      </trkpt>
      <trkpt lat="49.08002" lon="7.13106">
        <ele>242.39</ele>
        <time>2013-03-29T05:12:59Z</time>
      </trkpt>
      <trkpt lat="49.07967" lon="7.1314">
        <ele>240.47</ele>
        <time>2013-03-29T05:13:27Z</time>
      </trkpt>
      <trkpt lat="49.07933" lon="7.13162">
        <ele>239.02</ele>
        <time>2013-03-29T05:13:52Z</time>
      </trkpt>
      <trkpt lat="49.07896" lon="7.13191">
        <ele>236.62</ele>
        <time>2013-03-29T05:14:20Z</time>
      </trkpt>
      <trkpt lat="49.07859" lon="7.13175">
        <ele>237.1</ele>
        <time>2013-03-29T05:14:46Z</time>
      </trkpt>
      <trkpt lat="49.07849" lon="7.13158">
        <ele>238.54</ele>
        <time>2013-03-29T05:15:09Z</time>
      </trkpt>
      <trkpt lat="49.07824" lon="7.13162">
        <ele>238.54</ele>
        <time>2013-03-29T05:15:28Z</time>
      </trkpt>
      <trkpt lat="49.07783" lon="7.1318">
        <ele>239.51</ele>
        <time>2013-03-29T05:15:59Z</time>
      </trkpt>
      <trkpt lat="49.07761" lon="7.13192">
        <ele>239.02</ele>
        <time>2013-03-29T05:16:28Z</time>
      </trkpt>
      <trkpt lat="49.07738" lon="7.132">
        <ele>238.54</ele>
        <time>2013-03-29T05:16:52Z</time>
      </trkpt>
      <trkpt lat="49.07724" lon="7.13205">
        <ele>238.54</ele>
        <time>2013-03-29T05:17:16Z</time>
      </trkpt>
      <trkpt lat="49.07686" lon="7.13213">
        <ele>237.58</ele>
        <time>2013-03-29T05:17:43Z</time>
      </trkpt>
      <trkpt lat="49.07645" lon="7.13226">
        <ele>236.14</ele>
        <time>2013-03-29T05:18:13Z</time>
      </trkpt>
      <trkpt lat="49.07644" lon="7.13233">
        <ele>235.66</ele>
        <time>2013-03-29T05:18:17Z</time>
      </trkpt>
      <trkpt lat="49.07644" lon="7.13285">
        <ele>233.74</ele>
        <time>2013-03-29T05:18:45Z</time>
      </trkpt>
      <trkpt lat="49.07644" lon="7.13308">
        <ele>232.78</ele>
        <time>2013-03-29T05:19:16Z</time>
      </trkpt>
      <trkpt lat="49.07646" lon="7.13357">
        <ele>229.41</ele>
        <time>2013-03-29T05:19:40Z</time>
      </trkpt>
      <trkpt lat="49.07649" lon="7.13391">
        <ele>227.49</ele>
        <time>2013-03-29T05:20:03Z</time>
      </trkpt>
      <trkpt lat="49.07649" lon="7.13431">
        <ele>225.09</ele>
        <time>2013-03-29T05:20:25Z</time>
      </trkpt>
      <trkpt lat="49.07614" lon="7.13461">
        <ele>223.64</ele>
        <time>2013-03-29T05:20:53Z</time>
      </trkpt>
      <trkpt lat="49.07585" lon="7.13468">
        <ele>221.72</ele>
        <time>2013-03-29T05:21:18Z</time>
      </trkpt>
      <trkpt lat="49.07577" lon="7.13504">
        <ele>220.76</ele>
        <time>2013-03-29T05:21:44Z</time>
      </trkpt>
      <trkpt lat="49.07589" lon="7.13518">
        <ele>219.8</ele>
        <time>2013-03-29T05:21:59Z</time>
      </trkpt>
      <trkpt lat="49.07623" lon="7.13523">
        <ele>217.88</ele>
        <time>2013-03-29T05:22:26Z</time>
      </trkpt>
      <trkpt lat="49.07659" lon="7.13532">
        <ele>214.99</ele>
        <time>2013-03-29T05:22:52Z</time>
      </trkpt>
      <trkpt lat="49.07662" lon="7.13565">
        <ele>212.59</ele>
        <time>2013-03-29T05:23:10Z</time>
      </trkpt>
      <trkpt lat="49.07664" lon="7.1359">
        <ele>211.15</ele>
        <time>2013-03-29T05:23:25Z</time>
      </trkpt>
      <trkpt lat="49.07664" lon="7.1361">
        <ele>209.7</ele>
        <time>2013-03-29T05:23:34Z</time>
      </trkpt>
      <trkpt lat="49.07632" lon="7.13605">
        <ele>210.67</ele>
        <time>2013-03-29T05:23:57Z</time>
      </trkpt>
      <trkpt lat="49.07593" lon="7.13581">
        <ele>211.63</ele>
        <time>2013-03-29T05:24:27Z</time>
      </trkpt>
      <trkpt lat="49.07553" lon="7.13561">
        <ele>212.59</ele>
        <time>2013-03-29T05:24:56Z</time>
      </trkpt>
      <trkpt lat="49.07521" lon="7.13538">
        <ele>214.51</ele>
        <time>2013-03-29T05:25:23Z</time>
      </trkpt>
      <trkpt lat="49.07494" lon="7.1355">
        <ele>216.91</ele>
        <time>2013-03-29T05:25:50Z</time>
      </trkpt>
      <trkpt lat="49.07491" lon="7.13549">
        <ele>216.91</ele>
        <time>2013-03-29T05:26:07Z</time>
      </trkpt>
    </trkseg>
  </trk>
</gpx>